Time;durP1;ratioP1;P1;durP2;ratioP2;P2;SDS_P1;SDS_P2;PMS_P1;PMS_P2;Temp;Humidity;BMP_temperature;BMP_pressure;BME280_temperature;BME280_humidity;BME280_pressure;Samples;Min_cycle;Max_cycle;Signal;HPM_P1;HPM_P2
2021/01/13 00:01:42;;;;;;;5.53;1.60;;;1.90;99.90;;;;;;5024391;28;20025;-43
2021/01/13 00:04:09;;;;;;;3.65;0.98;;;1.90;99.90;;;;;;5024961;28;20522;-47
2021/01/13 00:06:34;;;;;;;6.03;1.45;;;1.90;99.90;;;;;;5026731;28;20052;-43
2021/01/13 00:09:00;;;;;;;2.75;1.02;;;1.90;99.90;;;;;;5022820;28;20037;-45
2021/01/13 00:11:26;;;;;;;4.75;1.30;;;1.90;99.90;;;;;;5018552;28;20076;-43
2021/01/13 00:13:51;;;;;;;14.55;2.78;;;1.90;99.90;;;;;;5026008;28;20029;-44
2021/01/13 00:16:17;;;;;;;3.83;1.17;;;1.90;99.90;;;;;;5022238;28;20025;-42
2021/01/13 00:18:42;;;;;;;6.07;1.27;;;1.80;99.90;;;;;;5023081;28;20127;-45
2021/01/13 00:21:15;;;;;;;4.10;1.77;;;1.80;99.90;;;;;;5046686;28;20473;-46
2021/01/13 00:23:42;;;;;;;4.32;1.25;;;1.70;99.90;;;;;;5015510;28;20026;-44
2021/01/13 00:26:08;;;;;;;3.58;1.00;;;1.60;99.90;;;;;;5020982;28;20048;-47
2021/01/13 00:28:33;;;;;;;4.03;0.98;;;1.60;99.90;;;;;;5026226;28;20034;-42
2021/01/13 00:30:59;;;;;;;5.43;1.08;;;1.50;99.90;;;;;;5029499;28;20038;-46
2021/01/13 00:33:25;;;;;;;3.50;0.98;;;1.40;99.90;;;;;;5027967;28;20041;-45
2021/01/13 00:35:50;;;;;;;1.88;0.90;;;1.30;99.90;;;;;;5022767;28;20072;-44
2021/01/13 00:38:16;;;;;;;8.85;1.35;;;1.20;99.90;;;;;;5022446;28;20108;-45
2021/01/13 00:40:41;;;;;;;5.38;1.27;;;1.10;99.90;;;;;;5024479;28;20025;-42
2021/01/13 00:43:07;;;;;;;3.25;1.30;;;1.00;99.90;;;;;;5030571;28;20032;-43
2021/01/13 00:45:32;;;;;;;5.70;1.30;;;0.90;99.90;;;;;;5026051;28;20470;-45
2021/01/13 00:48:00;;;;;;;4.38;0.85;;;0.90;99.90;;;;;;5031040;28;20040;-42
2021/01/13 00:50:27;;;;;;;7.20;1.10;;;0.90;99.90;;;;;;5029630;28;20025;-43
2021/01/13 00:52:52;;;;;;;5.20;0.80;;;0.90;99.90;;;;;;5024348;28;20141;-43
2021/01/13 00:55:19;;;;;;;2.03;0.82;;;1.00;99.90;;;;;;5029206;28;20120;-45
2021/01/13 00:57:50;;;;;;;9.02;1.17;;;1.00;99.90;;;;;;5023683;28;20026;-42
2021/01/13 01:00:16;;;;;;;1.95;1.00;;;0.90;99.90;;;;;;5028640;28;20053;-42
2021/01/13 01:02:42;;;;;;;4.80;0.85;;;0.90;99.90;;;;;;5026397;28;20060;-43
2021/01/13 01:05:08;;;;;;;2.15;0.80;;;0.90;99.90;;;;;;5025072;28;20113;-43
2021/01/13 01:07:39;;;;;;;5.50;0.90;;;1.00;99.90;;;;;;5029342;28;20029;-42
2021/01/13 01:10:06;;;;;;;6.20;1.15;;;1.10;99.90;;;;;;5021428;28;20385;-45
2021/01/13 01:12:31;;;;;;;6.22;0.93;;;1.10;99.90;;;;;;5022394;28;20112;-42
2021/01/13 01:14:57;;;;;;;6.47;1.67;;;1.20;99.90;;;;;;5027794;28;20155;-44
2021/01/13 01:17:22;;;;;;;4.32;1.00;;;1.20;99.90;;;;;;5024424;28;20041;-43
2021/01/13 01:19:48;;;;;;;4.60;1.35;;;1.30;99.90;;;;;;5030929;28;20041;-43
2021/01/13 01:22:14;;;;;;;7.40;1.42;;;1.40;99.90;;;;;;5029672;28;20029;-42
2021/01/13 01:24:39;;;;;;;8.52;1.10;;;1.40;99.90;;;;;;5026852;28;20112;-44
2021/01/13 01:27:05;;;;;;;12.32;1.67;;;1.50;99.90;;;;;;5016535;28;20034;-45
2021/01/13 01:29:30;;;;;;;5.70;0.82;;;1.50;99.90;;;;;;5028073;28;20029;-44
2021/01/13 01:31:55;;;;;;;8.85;1.17;;;1.60;99.90;;;;;;5030625;28;20040;-46
2021/01/13 01:34:21;;;;;;;3.10;0.80;;;1.60;99.90;;;;;;5032317;28;20499;-46
2021/01/13 01:36:46;;;;;;;7.35;1.20;;;1.70;99.90;;;;;;5033491;28;20126;-44
2021/01/13 01:39:12;;;;;;;4.55;1.08;;;1.70;99.90;;;;;;5031323;28;20025;-42
2021/01/13 01:41:38;;;;;;;5.43;0.90;;;1.70;99.90;;;;;;5029914;28;20033;-43
2021/01/13 01:44:04;;;;;;;11.20;1.77;;;1.80;99.90;;;;;;5031318;28;20053;-45
2021/01/13 01:46:30;;;;;;;7.07;1.13;;;1.80;99.90;;;;;;5033808;28;20473;-42
2021/01/13 01:49:00;;;;;;;3.65;0.80;;;1.80;99.90;;;;;;5033913;28;20388;-42
2021/01/13 01:51:33;;;;;;;9.82;1.60;;;1.80;99.90;;;;;;5035874;28;20045;-43
2021/01/13 01:54:11;;;;;;;11.25;1.92;;;1.80;99.90;;;;;;5032058;28;20025;-47
2021/01/13 01:56:38;;;;;;;6.72;1.10;;;1.80;99.90;;;;;;5027531;28;20504;-44
2021/01/13 01:59:14;;;;;;;3.90;1.13;;;1.80;99.90;;;;;;5033160;28;20021;-46
2021/01/13 02:01:45;;;;;;;5.32;1.08;;;1.80;99.90;;;;;;5030767;28;20021;-43
2021/01/13 02:04:14;;;;;;;4.45;1.25;;;1.80;99.90;;;;;;5030131;28;20033;-45
2021/01/13 02:07:03;;;;;;;7.63;1.20;;;1.90;99.90;;;;;;5031858;28;20052;-46
2021/01/13 02:09:30;;;;;;;3.08;1.00;;;1.80;99.90;;;;;;5022827;28;20446;-43
2021/01/13 02:11:57;;;;;;;8.98;1.15;;;1.90;99.90;;;;;;5026547;28;20032;-46
2021/01/13 02:14:25;;;;;;;7.07;1.23;;;1.90;99.90;;;;;;5031109;28;20036;-42
2021/01/13 02:16:52;;;;;;;8.73;1.80;;;1.90;99.90;;;;;;5031952;28;20105;-42
2021/01/13 02:19:55;;;;;;;7.50;1.55;;;1.90;99.90;;;;;;5028098;28;20014;-44
2021/01/13 02:22:26;;;;;;;5.35;1.45;;;1.90;99.90;;;;;;5003097;28;20029;-44
2021/01/13 02:25:03;;;;;;;4.60;1.40;;;1.90;99.90;;;;;;5031881;28;20473;-44
2021/01/13 02:28:05;;;;;;;7.50;1.63;;;1.90;99.90;;;;;;5024705;28;20075;-47
2021/01/13 02:30:40;;;;;;;7.47;1.30;;;1.80;99.90;;;;;;5025831;28;20048;-45
2021/01/13 02:33:14;;;;;;;6.43;1.30;;;1.80;99.90;;;;;;5027148;28;20029;-45
2021/01/13 02:36:19;;;;;;;4.82;1.73;;;1.70;99.90;;;;;;5033792;28;20021;-46
2021/01/13 02:38:48;;;;;;;8.70;1.75;;;1.70;99.90;;;;;;5019126;28;20026;-44
2021/01/13 02:41:19;;;;;;;5.85;1.58;;;1.70;99.90;;;;;;5029763;28;20178;-43
2021/01/13 02:43:53;;;;;;;5.70;1.77;;;1.70;99.90;;;;;;5026479;28;20022;-43
2021/01/13 02:46:57;;;;;;;7.05;1.65;;;1.70;99.90;;;;;;5027951;28;20037;-42
2021/01/13 02:49:25;;;;;;;8.27;1.70;;;1.80;99.90;;;;;;5031147;28;20103;-43
2021/01/13 02:51:54;;;;;;;6.57;2.00;;;1.80;99.90;;;;;;5024035;28;20041;-43
2021/01/13 02:54:30;;;;;;;5.63;1.60;;;1.90;99.90;;;;;;5028392;28;20017;-44
2021/01/13 02:57:14;;;;;;;11.32;2.55;;;1.90;99.90;;;;;;5029567;28;20029;-42
2021/01/13 02:59:44;;;;;;;5.18;1.67;;;1.90;99.90;;;;;;5027100;28;20416;-45
2021/01/13 03:02:10;;;;;;;5.22;1.63;;;1.90;99.90;;;;;;5025847;28;20025;-42
2021/01/13 03:04:37;;;;;;;3.58;1.48;;;1.90;99.90;;;;;;5023491;28;20104;-42
2021/01/13 03:07:14;;;;;;;6.25;1.85;;;1.90;99.90;;;;;;5027659;28;20491;-42
2021/01/13 03:09:49;;;;;;;7.50;1.60;;;2.00;99.90;;;;;;5029961;28;20046;-45
2021/01/13 03:12:26;;;;;;;6.32;1.63;;;2.00;99.90;;;;;;5031509;28;20037;-44
2021/01/13 03:14:57;;;;;;;3.63;1.15;;;2.00;99.90;;;;;;5031423;28;20036;-45
2021/01/13 03:17:40;;;;;;;8.70;1.90;;;2.00;99.90;;;;;;5031427;28;20485;-42
2021/01/13 03:20:24;;;;;;;2.90;1.40;;;2.00;99.90;;;;;;5032008;28;20036;-43
2021/01/13 03:22:49;;;;;;;8.32;1.20;;;2.00;99.90;;;;;;5025377;28;20034;-42
2021/01/13 03:25:18;;;;;;;3.92;1.30;;;2.00;99.90;;;;;;5021279;28;20057;-45
2021/01/13 03:27:46;;;;;;;5.45;1.90;;;2.00;99.90;;;;;;5028036;28;20066;-44
2021/01/13 03:30:13;;;;;;;9.45;1.75;;;2.00;99.90;;;;;;5028216;28;20029;-43
2021/01/13 03:33:02;;;;;;;3.22;1.48;;;2.00;99.90;;;;;;5030155;28;20030;-42
2021/01/13 03:35:41;;;;;;;7.57;1.60;;;2.00;99.90;;;;;;5026256;28;20439;-43
2021/01/13 03:38:16;;;;;;;4.78;1.38;;;2.10;99.90;;;;;;5027817;28;20449;-49
2021/01/13 03:40:45;;;;;;;2.38;1.20;;;2.10;99.90;;;;;;5030356;28;20044;-45
2021/01/13 03:43:22;;;;;;;8.95;1.70;;;2.00;99.90;;;;;;5023598;28;20499;-42
2021/01/13 03:45:52;;;;;;;3.55;1.40;;;2.10;99.90;;;;;;5028225;28;20088;-44
2021/01/13 03:48:42;;;;;;;2.17;1.02;;;2.10;99.90;;;;;;5029944;28;20064;-43
2021/01/13 03:51:25;;;;;;;9.60;1.90;;;2.10;99.90;;;;;;5026530;28;20105;-43
2021/01/13 03:53:51;;;;;;;4.32;1.20;;;2.10;99.90;;;;;;5018663;28;20057;-43
2021/01/13 03:56:25;;;;;;;10.30;2.20;;;2.10;99.90;;;;;;5023335;28;20046;-43
2021/01/13 03:58:51;;;;;;;8.68;1.58;;;2.10;99.90;;;;;;5029459;28;20049;-43
2021/01/13 04:01:23;;;;;;;3.95;1.73;;;2.10;99.90;;;;;;5026407;28;20032;-43
2021/01/13 04:04:07;;;;;;;5.72;1.33;;;2.10;99.90;;;;;;5029848;28;20054;-45
2021/01/13 04:06:41;;;;;;;4.80;1.60;;;2.20;99.90;;;;;;5028630;28;20572;-42
2021/01/13 04:09:18;;;;;;;5.05;1.50;;;2.20;99.90;;;;;;5030222;28;20037;-44
2021/01/13 04:11:49;;;;;;;4.97;1.17;;;2.20;99.90;;;;;;5029514;28;20029;-42
2021/01/13 04:14:18;;;;;;;4.03;0.93;;;2.20;99.90;;;;;;5027472;28;20113;-43
2021/01/13 04:16:44;;;;;;;2.85;1.30;;;2.10;99.90;;;;;;5023909;28;20036;-43
2021/01/13 04:19:11;;;;;;;6.35;1.08;;;2.20;99.90;;;;;;5030603;28;20071;-45
2021/01/13 04:21:37;;;;;;;14.38;1.58;;;2.10;99.90;;;;;;5022749;28;20076;-42
2021/01/13 04:24:03;;;;;;;6.25;1.60;;;2.10;99.90;;;;;;5026364;28;20022;-45
2021/01/13 04:26:30;;;;;;;11.75;1.77;;;2.10;99.90;;;;;;5026423;28;20057;-44
2021/01/13 04:28:56;;;;;;;6.10;1.58;;;2.10;99.90;;;;;;5025001;28;20030;-43
2021/01/13 04:31:25;;;;;;;4.18;1.30;;;2.00;99.90;;;;;;5026313;28;20039;-43
2021/01/13 04:33:52;;;;;;;3.75;1.45;;;2.00;99.90;;;;;;5026970;28;20425;-46
2021/01/13 04:36:19;;;;;;;2.83;1.10;;;2.10;99.90;;;;;;5025994;28;20053;-43
2021/01/13 04:38:46;;;;;;;6.22;1.52;;;2.10;99.90;;;;;;5026083;28;20060;-42
2021/01/13 04:41:19;;;;;;;6.57;1.60;;;2.10;99.90;;;;;;5029470;28;20032;-42
2021/01/13 04:44:02;;;;;;;5.70;1.73;;;2.10;99.90;;;;;;5026516;28;20057;-43
2021/01/13 04:46:37;;;;;;;5.63;1.20;;;2.10;99.90;;;;;;5025378;28;20034;-47
2021/01/13 04:49:16;;;;;;;8.82;1.88;;;2.10;99.90;;;;;;5028477;28;20061;-43
2021/01/13 04:51:44;;;;;;;8.82;1.80;;;2.10;99.90;;;;;;5027876;28;20041;-44
2021/01/13 04:54:12;;;;;;;3.72;1.15;;;2.10;99.90;;;;;;5033663;28;20066;-42
2021/01/13 04:56:45;;;;;;;6.82;1.65;;;2.10;99.90;;;;;;5031699;28;20061;-43
2021/01/13 04:59:48;;;;;;;4.78;1.60;;;2.10;99.90;;;;;;5034747;28;20104;-42
2021/01/13 05:02:17;;;;;;;9.68;2.00;;;2.10;99.90;;;;;;5028501;28;20476;-43
2021/01/13 05:05:05;;;;;;;4.07;1.40;;;2.10;99.90;;;;;;5032173;28;20022;-47
2021/01/13 05:07:35;;;;;;;9.30;1.92;;;2.10;99.90;;;;;;5029282;28;20021;-43
2021/01/13 05:10:27;;;;;;;3.10;1.60;;;2.10;99.90;;;;;;5034619;28;20060;-43
2021/01/13 05:12:58;;;;;;;4.80;1.77;;;2.10;99.90;;;;;;5024630;28;20034;-42
2021/01/13 05:15:28;;;;;;;3.47;1.65;;;2.10;99.90;;;;;;5032022;28;20039;-44
2021/01/13 05:18:02;;;;;;;8.23;1.75;;;2.10;99.90;;;;;;5031132;28;20052;-44
2021/01/13 05:20:35;;;;;;;11.15;1.98;;;2.10;99.90;;;;;;5022777;28;20021;-45
2021/01/13 05:23:02;;;;;;;5.55;2.15;;;2.10;99.90;;;;;;5041031;28;20017;-42
2021/01/13 05:25:41;;;;;;;5.75;1.75;;;2.20;99.90;;;;;;5027423;28;20037;-44
2021/01/13 05:28:11;;;;;;;8.38;1.85;;;2.10;99.90;;;;;;5025348;28;20033;-43
2021/01/13 05:30:58;;;;;;;8.65;2.28;;;2.20;99.90;;;;;;5028756;28;20043;-44
2021/01/13 05:33:25;;;;;;;8.63;2.20;;;2.20;99.90;;;;;;5025520;28;20104;-44
2021/01/13 05:35:57;;;;;;;4.80;1.90;;;2.20;99.90;;;;;;5025590;28;20564;-43
2021/01/13 05:38:38;;;;;;;7.30;2.05;;;2.10;99.90;;;;;;5023740;28;20464;-42
2021/01/13 05:41:14;;;;;;;8.00;2.17;;;2.10;99.90;;;;;;5021772;28;20115;-43
2021/01/13 05:43:45;;;;;;;7.60;1.90;;;2.10;99.90;;;;;;5027704;28;20017;-48
2021/01/13 05:46:13;;;;;;;8.15;1.58;;;2.00;99.90;;;;;;5025476;28;20076;-46
2021/01/13 05:48:47;;;;;;;10.38;2.22;;;2.00;99.90;;;;;;5029523;28;20048;-42
2021/01/13 05:51:14;;;;;;;2.83;1.25;;;1.90;99.90;;;;;;5027591;28;20041;-42
2021/01/13 05:53:50;;;;;;;5.40;1.65;;;1.90;99.90;;;;;;5027488;28;20546;-45
2021/01/13 05:56:20;;;;;;;9.63;1.95;;;1.90;99.90;;;;;;5030266;28;20041;-42
2021/01/13 05:58:59;;;;;;;5.32;1.63;;;2.00;99.90;;;;;;5028193;28;20021;-46
2021/01/13 06:01:46;;;;;;;9.48;1.88;;;2.00;99.90;;;;;;5044153;28;20034;-43
2021/01/13 06:04:14;;;;;;;6.18;2.00;;;2.00;99.90;;;;;;5023832;28;20454;-45
2021/01/13 06:06:58;;;;;;;10.40;2.67;;;2.00;99.90;;;;;;5028829;28;20366;-42
2021/01/13 06:09:24;;;;;;;6.53;1.75;;;2.00;99.90;;;;;;5028321;28;20056;-45
2021/01/13 06:11:55;;;;;;;5.45;1.80;;;2.10;99.90;;;;;;5032979;28;20038;-45
2021/01/13 06:14:27;;;;;;;11.27;1.98;;;2.10;99.90;;;;;;5033573;28;20086;-45
2021/01/13 06:16:54;;;;;;;7.88;2.40;;;2.10;99.90;;;;;;5032673;28;20029;-47
2021/01/13 06:19:20;;;;;;;7.97;2.22;;;2.10;99.90;;;;;;5032766;28;20029;-43
2021/01/13 06:21:46;;;;;;;8.55;2.38;;;2.10;99.90;;;;;;5033130;28;20091;-43
2021/01/13 06:24:12;;;;;;;3.72;1.60;;;2.10;99.90;;;;;;5032327;28;20556;-45
2021/01/13 06:26:51;;;;;;;8.57;2.22;;;2.10;99.90;;;;;;5033448;28;20481;-43
2021/01/13 06:29:42;;;;;;;4.78;1.90;;;2.20;99.90;;;;;;5028068;28;20420;-45
2021/01/13 06:32:18;;;;;;;3.92;1.38;;;2.20;99.90;;;;;;5026763;28;20357;-46
2021/01/13 06:35:16;;;;;;;7.60;2.08;;;2.20;99.90;;;;;;5033165;28;20025;-43
2021/01/13 06:37:49;;;;;;;5.75;1.73;;;2.20;99.90;;;;;;4999043;28;20045;-46
2021/01/13 06:40:20;;;;;;;7.10;2.08;;;2.20;99.90;;;;;;5033351;28;20377;-43
2021/01/13 06:42:46;;;;;;;6.38;2.08;;;2.20;99.90;;;;;;5033079;28;20021;-43
2021/01/13 06:45:13;;;;;;;4.28;1.42;;;2.20;99.90;;;;;;5022911;28;20029;-44
2021/01/13 06:47:55;;;;;;;5.45;2.08;;;2.10;99.90;;;;;;5032027;28;20029;-43
2021/01/13 06:50:41;;;;;;;3.75;1.98;;;2.10;99.90;;;;;;5027053;28;20403;-43
2021/01/13 06:53:06;;;;;;;8.25;3.13;;;2.10;99.90;;;;;;5030856;28;20045;-43
2021/01/13 06:55:35;;;;;;;3.67;1.90;;;2.10;99.90;;;;;;5019737;28;20117;-43
2021/01/13 06:58:17;;;;;;;5.90;2.20;;;2.10;99.90;;;;;;5019889;28;20088;-45
2021/01/13 07:00:44;;;;;;;5.63;1.90;;;2.10;99.90;;;;;;5024037;28;20370;-46
2021/01/13 07:03:29;;;;;;;7.55;3.08;;;2.10;99.90;;;;;;5024664;28;20052;-46
2021/01/13 07:05:57;;;;;;;3.42;1.73;;;2.10;99.90;;;;;;5017470;28;20061;-43
2021/01/13 07:08:23;;;;;;;8.02;2.25;;;2.10;99.90;;;;;;5022753;28;20030;-43
2021/01/13 07:11:00;;;;;;;5.05;1.73;;;2.10;99.90;;;;;;5019713;28;20022;-42
2021/01/13 07:13:28;;;;;;;4.72;1.75;;;2.10;99.90;;;;;;5013650;28;20460;-45
2021/01/13 07:15:59;;;;;;;7.97;2.17;;;2.10;99.90;;;;;;5022423;28;20477;-47
2021/01/13 07:18:25;;;;;;;6.63;2.03;;;2.20;99.90;;;;;;5037370;28;20496;-43
2021/01/13 07:20:50;;;;;;;7.15;1.70;;;2.20;99.90;;;;;;5024300;28;20025;-45
2021/01/13 07:23:17;;;;;;;6.78;2.47;;;2.20;99.90;;;;;;5023191;28;20615;-43
2021/01/13 07:25:50;;;;;;;7.65;2.40;;;2.20;99.90;;;;;;5024099;28;20141;-45
2021/01/13 07:28:17;;;;;;;11.27;2.70;;;2.20;99.90;;;;;;5030036;28;20025;-44
2021/01/13 07:30:44;;;;;;;6.15;2.17;;;2.20;99.90;;;;;;5020512;28;20022;-48
2021/01/13 07:33:14;;;;;;;10.07;2.05;;;2.20;99.90;;;;;;5028646;28;20037;-47
2021/01/13 07:35:47;;;;;;;4.75;1.80;;;2.20;99.90;;;;;;5029125;28;20070;-46
2021/01/13 07:38:17;;;;;;;5.75;1.58;;;2.30;99.90;;;;;;5023552;28;20334;-46
2021/01/13 07:40:58;;;;;;;7.57;1.80;;;2.30;99.90;;;;;;5029914;28;20032;-45
2021/01/13 07:44:18;;;;;;;5.53;1.92;;;2.30;99.90;;;;;;5026584;28;20063;-43
2021/01/13 07:46:59;;;;;;;10.27;2.10;;;2.30;99.90;;;;;;4986766;28;20506;-43
2021/01/13 07:49:40;;;;;;;3.40;1.63;;;2.30;99.90;;;;;;5025529;28;20040;-45
2021/01/13 07:52:09;;;;;;;6.45;1.98;;;2.30;99.90;;;;;;5025647;28;20038;-43
2021/01/13 07:54:36;;;;;;;6.68;1.90;;;2.30;99.90;;;;;;5027651;28;20064;-45
2021/01/13 07:57:03;;;;;;;5.93;1.73;;;2.30;99.90;;;;;;5030107;28;20116;-43
2021/01/13 07:59:35;;;;;;;4.60;1.80;;;2.40;99.90;;;;;;5019116;28;20019;-45
2021/01/13 08:02:44;;;;;;;7.65;2.53;;;2.40;99.90;;;;;;5025746;28;20456;-42
2021/01/13 08:06:06;;;;;;;3.80;1.65;;;2.40;99.90;;;;;;5021089;28;20500;-45
2021/01/13 08:09:00;;;;;;;5.57;1.88;;;2.40;99.90;;;;;;5022769;28;20032;-43
2021/01/13 08:12:10;;;;;;;3.92;1.73;;;2.50;99.90;;;;;;5027748;28;20033;-46
2021/01/13 08:15:13;;;;;;;4.35;2.13;;;2.60;99.90;;;;;;5028065;28;20116;-43
2021/01/13 08:18:12;;;;;;;11.63;2.25;;;2.60;99.90;;;;;;5024369;28;20064;-46
2021/01/13 08:23:54;;;;;;;6.72;1.88;;;2.60;99.90;;;;;;5026972;28;20041;-46
2021/01/13 08:26:19;;;;;;;7.50;1.88;;;2.60;99.90;;;;;;5028759;28;20039;-43
2021/01/13 08:28:48;;;;;;;4.78;1.65;;;2.70;99.90;;;;;;5030361;28;20112;-46
2021/01/13 08:31:25;;;;;;;6.63;1.73;;;2.70;99.90;;;;;;5025305;28;20033;-42
2021/01/13 08:34:09;;;;;;;4.25;1.50;;;2.70;99.90;;;;;;5025459;28;20032;-46
2021/01/13 08:36:35;;;;;;;11.00;1.85;;;2.80;99.90;;;;;;5027140;28;20030;-43
2021/01/13 08:39:15;;;;;;;7.32;1.83;;;2.90;99.90;;;;;;5027948;28;20026;-45
2021/01/13 08:41:45;;;;;;;4.55;1.20;;;3.00;99.90;;;;;;5027280;28;20084;-45
2021/01/13 08:44:10;;;;;;;5.50;1.40;;;3.00;99.90;;;;;;5024288;28;20096;-45
2021/01/13 08:46:44;;;;;;;4.32;2.05;;;3.00;99.90;;;;;;5025857;28;20520;-43
2021/01/13 08:49:10;;;;;;;8.57;1.70;;;3.00;99.90;;;;;;5040975;28;20026;-45
2021/01/13 08:51:36;;;;;;;4.55;1.35;;;3.00;99.90;;;;;;5029140;28;20091;-45
2021/01/13 08:54:21;;;;;;;4.97;1.65;;;3.00;99.90;;;;;;5028012;28;20429;-43
2021/01/13 08:56:59;;;;;;;6.30;1.50;;;3.10;99.90;;;;;;5027291;28;20065;-45
2021/01/13 08:59:44;;;;;;;5.85;1.83;;;3.10;99.90;;;;;;5033313;28;20026;-44
2021/01/13 09:02:18;;;;;;;3.38;1.60;;;3.20;99.90;;;;;;5023257;28;20025;-44
2021/01/13 09:04:48;;;;;;;4.07;1.42;;;3.20;99.90;;;;;;5038121;28;20033;-43
2021/01/13 09:07:25;;;;;;;4.28;1.58;;;3.20;99.90;;;;;;5018816;28;20112;-46
2021/01/13 09:10:05;;;;;;;3.72;1.48;;;3.20;99.90;;;;;;5021925;28;20038;-45
2021/01/13 09:12:36;;;;;;;44.88;6.15;;;3.20;99.90;;;;;;5023391;28;20026;-43
2021/01/13 09:15:08;;;;;;;7.25;2.53;;;3.30;99.90;;;;;;5026712;28;21014;-44
2021/01/13 09:17:54;;;;;;;4.20;1.60;;;3.30;99.90;;;;;;5028230;28;20425;-44
2021/01/13 09:20:22;;;;;;;;;;;3.30;99.90;;;;;;5029306;28;20025;-43
2021/01/13 09:22:50;;;;;;;6.50;2.45;;;3.30;99.90;;;;;;5028341;28;19920;-44
2021/01/13 09:25:16;;;;;;;5.13;1.33;;;3.30;99.90;;;;;;5029548;28;20362;-45
2021/01/13 09:27:48;;;;;;;7.78;1.50;;;3.30;99.90;;;;;;5027867;28;20067;-45
2021/01/13 09:30:27;;;;;;;2.90;1.30;;;3.20;99.90;;;;;;5025779;28;20034;-45
2021/01/13 09:32:55;;;;;;;5.63;1.83;;;3.30;99.90;;;;;;5016113;28;20525;-45
2021/01/13 09:35:29;;;;;;;4.75;1.20;;;3.30;99.90;;;;;;5026418;28;20068;-42
2021/01/13 09:37:59;;;;;;;5.00;1.42;;;3.30;99.90;;;;;;5021378;28;20598;-43
2021/01/13 09:41:04;;;;;;;7.22;1.38;;;3.30;99.90;;;;;;5035546;28;20068;-44
2021/01/13 09:43:46;;;;;;;5.25;1.55;;;3.30;99.90;;;;;;5027680;28;20036;-43
2021/01/13 09:46:20;;;;;;;5.68;1.20;;;3.30;99.90;;;;;;5028491;28;20413;-43
2021/01/13 09:48:56;;;;;;;3.42;1.33;;;3.30;99.90;;;;;;5030360;28;20033;-47
2021/01/13 09:51:22;;;;;;;1.92;1.17;;;3.30;99.90;;;;;;5032605;28;20055;-43
2021/01/13 09:53:55;;;;;;;3.72;1.10;;;3.30;99.90;;;;;;5028765;28;20037;-45
2021/01/13 09:56:21;;;;;;;4.93;1.55;;;3.40;99.90;;;;;;5032535;28;20037;-46
2021/01/13 09:58:48;;;;;;;5.97;1.10;;;3.40;99.90;;;;;;5027876;28;20492;-45
2021/01/13 10:01:20;;;;;;;5.70;2.05;;;3.40;99.90;;;;;;5029399;28;20041;-44
2021/01/13 10:03:48;;;;;;;4.45;1.20;;;3.40;99.90;;;;;;5029899;28;20481;-47
2021/01/13 10:06:20;;;;;;;5.25;1.50;;;3.40;99.90;;;;;;5032265;28;20037;-43
2021/01/13 10:08:46;;;;;;;3.25;1.50;;;3.40;99.90;;;;;;5028991;28;20377;-43
2021/01/13 10:11:13;;;;;;;3.42;1.50;;;3.40;99.90;;;;;;5036077;28;20481;-45
2021/01/13 10:13:41;;;;;;;6.18;1.38;;;3.50;99.90;;;;;;5030843;28;20538;-43
2021/01/13 10:16:08;;;;;;;5.97;1.33;;;3.60;99.90;;;;;;5028461;28;20846;-43
2021/01/13 10:18:46;;;;;;;3.40;1.33;;;3.70;99.90;;;;;;5022587;28;20072;-42
2021/01/13 10:21:11;;;;;;;7.35;1.60;;;3.80;99.90;;;;;;5030793;28;20022;-43
2021/01/13 10:23:39;;;;;;;9.50;1.75;;;3.80;99.90;;;;;;5024307;28;20022;-43
2021/01/13 10:26:07;;;;;;;11.55;1.45;;;3.80;99.90;;;;;;5026323;28;20092;-43
2021/01/13 10:28:34;;;;;;;5.63;1.33;;;3.80;99.90;;;;;;5028003;28;20021;-43
2021/01/13 10:31:00;;;;;;;5.13;1.10;;;3.80;99.90;;;;;;5027407;28;20496;-43
2021/01/13 10:33:47;;;;;;;2.45;1.08;;;3.80;99.90;;;;;;5026195;28;20040;-45
2021/01/13 10:36:53;;;;;;;3.22;1.00;;;3.80;99.90;;;;;;5029170;28;20533;-43
2021/01/13 10:39:26;;;;;;;3.33;1.05;;;3.80;99.90;;;;;;5025911;28;20531;-45
2021/01/13 10:42:06;;;;;;;7.32;1.88;;;3.80;99.90;;;;;;5027866;28;20021;-43
2021/01/13 10:44:33;;;;;;;3.70;1.58;;;3.80;99.90;;;;;;5028528;28;20164;-43
2021/01/13 10:47:01;;;;;;;5.50;1.27;;;3.80;99.90;;;;;;5028323;28;20484;-44
2021/01/13 10:49:31;;;;;;;6.55;1.70;;;3.80;99.90;;;;;;5030694;28;20026;-45
2021/01/13 10:52:00;;;;;;;6.00;1.38;;;3.80;99.90;;;;;;5030827;28;20120;-42
2021/01/13 10:54:31;;;;;;;3.72;1.00;;;3.90;99.90;;;;;;5024491;28;20028;-43
2021/01/13 10:57:08;;;;;;;2.92;0.98;;;3.90;99.90;;;;;;5024407;28;20026;-47
2021/01/13 10:59:35;;;;;;;3.83;1.38;;;3.90;99.90;;;;;;5028339;28;20032;-43
2021/01/13 11:02:07;;;;;;;7.68;1.40;;;4.00;99.90;;;;;;5018112;28;20033;-44
2021/01/13 11:04:39;;;;;;;5.43;1.10;;;3.90;99.90;;;;;;5028584;28;20461;-46
2021/01/13 11:07:14;;;;;;;4.03;1.35;;;4.00;99.90;;;;;;5028330;28;20428;-45
2021/01/13 11:09:43;;;;;;;5.28;1.92;;;4.00;99.90;;;;;;5025556;28;20036;-45
2021/01/13 11:12:10;;;;;;;5.07;1.45;;;4.00;99.90;;;;;;5026641;28;20037;-42
2021/01/13 11:14:44;;;;;;;4.90;2.08;;;4.00;99.90;;;;;;5026990;28;20138;-45
2021/01/13 11:17:18;;;;;;;7.85;1.58;;;4.00;99.90;;;;;;5027713;28;20022;-45
2021/01/13 11:19:45;;;;;;;5.18;1.45;;;3.90;99.90;;;;;;5030666;28;20575;-44
2021/01/13 11:22:11;;;;;;;3.88;1.30;;;3.90;99.90;;;;;;5025782;28;20033;-46
2021/01/13 11:24:41;;;;;;;2.47;1.58;;;3.90;99.90;;;;;;5026137;28;20465;-46
2021/01/13 11:27:21;;;;;;;4.55;1.17;;;3.90;99.90;;;;;;5025182;28;20034;-47
2021/01/13 11:29:52;;;;;;;5.60;1.30;;;3.90;99.90;;;;;;5030805;28;20033;-46
2021/01/13 11:32:19;;;;;;;3.72;1.20;;;3.90;99.90;;;;;;5026547;28;20040;-48
2021/01/13 11:34:53;;;;;;;7.28;1.40;;;3.90;99.90;;;;;;5027280;28;20041;-46
2021/01/13 11:37:32;;;;;;;5.70;1.30;;;3.90;99.90;;;;;;5017189;28;20404;-44
2021/01/13 11:40:16;;;;;;;4.80;1.23;;;4.00;99.90;;;;;;5026303;28;20489;-42
2021/01/13 11:43:00;;;;;;;2.95;1.23;;;4.00;99.90;;;;;;5018575;28;20062;-47
2021/01/13 11:45:30;;;;;;;4.25;1.13;;;4.10;99.90;;;;;;5027780;28;20033;-45
2021/01/13 11:48:04;;;;;;;6.18;1.83;;;4.10;99.90;;;;;;5027461;28;20061;-45
2021/01/13 11:50:38;;;;;;;5.35;1.30;;;4.10;99.90;;;;;;5024653;28;20469;-43
2021/01/13 11:53:06;;;;;;;1.80;1.00;;;4.10;99.90;;;;;;5043949;28;20084;-42
2021/01/13 11:55:33;;;;;;;4.15;1.20;;;4.20;99.90;;;;;;5027900;28;20397;-43
2021/01/13 11:57:59;;;;;;;4.18;1.50;;;4.30;99.90;;;;;;5028614;28;20021;-46
2021/01/13 12:00:28;;;;;;;5.82;1.00;;;4.40;99.90;;;;;;5022866;28;20377;-44
2021/01/13 12:02:59;;;;;;;7.00;1.60;;;4.40;99.90;;;;;;5023825;28;20037;-45
2021/01/13 12:05:27;;;;;;;4.70;1.20;;;4.50;99.90;;;;;;5023516;28;20029;-43
2021/01/13 12:08:03;;;;;;;12.52;1.30;;;4.40;99.90;;;;;;5025224;28;20036;-47
2021/01/13 12:10:30;;;;;;;7.10;1.60;;;4.30;99.90;;;;;;5026127;28;20385;-47
2021/01/13 12:13:23;;;;;;;2.95;1.10;;;4.20;99.90;;;;;;5021579;28;20041;-45
2021/01/13 12:15:51;;;;;;;5.68;1.73;;;4.20;99.90;;;;;;5026453;28;20063;-44
2021/01/13 12:18:29;;;;;;;3.55;1.20;;;4.20;99.90;;;;;;5030214;28;20025;-47
2021/01/13 12:20:57;;;;;;;5.63;1.15;;;4.10;99.90;;;;;;5027235;28;20467;-43
2021/01/13 12:23:36;;;;;;;3.50;1.20;;;4.20;99.90;;;;;;5028027;28;20018;-45
2021/01/13 12:26:18;;;;;;;4.13;0.90;;;4.10;99.90;;;;;;5030249;28;20374;-43
2021/01/13 12:28:47;;;;;;;8.70;1.65;;;4.20;99.90;;;;;;5030574;28;20030;-43
2021/01/13 12:31:14;;;;;;;4.43;1.50;;;4.20;99.90;;;;;;5029056;28;20065;-42
2021/01/13 12:34:02;;;;;;;4.45;1.33;;;4.20;99.90;;;;;;5026456;28;20029;-46
2021/01/13 12:36:36;;;;;;;4.40;1.30;;;4.20;99.90;;;;;;5029455;28;20030;-45
2021/01/13 12:39:02;;;;;;;5.43;1.23;;;4.30;99.90;;;;;;5024978;28;20428;-46
2021/01/13 12:41:30;;;;;;;5.20;1.13;;;4.30;99.90;;;;;;5025860;28;20034;-45
2021/01/13 12:44:09;;;;;;;3.97;1.00;;;4.30;99.90;;;;;;5023400;28;20029;-43
2021/01/13 12:46:48;;;;;;;5.20;1.42;;;4.30;99.90;;;;;;5027965;28;20078;-42
2021/01/13 12:49:13;;;;;;;6.88;1.33;;;4.30;99.90;;;;;;5030266;28;20041;-43
2021/01/13 12:51:39;;;;;;;6.10;1.55;;;4.30;99.90;;;;;;5029498;28;20409;-43
2021/01/13 12:54:05;;;;;;;5.78;1.30;;;4.30;99.90;;;;;;5024483;28;20057;-44
2021/01/13 12:56:34;;;;;;;6.75;1.70;;;4.30;99.90;;;;;;5029374;28;20037;-44
2021/01/13 12:59:01;;;;;;;3.80;1.38;;;4.30;99.90;;;;;;5028983;28;20066;-43
2021/01/13 13:01:27;;;;;;;5.30;1.50;;;4.30;99.90;;;;;;5028737;28;20048;-43
2021/01/13 13:03:53;;;;;;;3.90;1.20;;;4.40;99.90;;;;;;5029485;28;20478;-45
2021/01/13 13:06:29;;;;;;;5.20;1.40;;;4.40;99.90;;;;;;5026333;28;20048;-44
2021/01/13 13:08:56;;;;;;;3.15;1.30;;;4.40;99.90;;;;;;5024757;28;20397;-43
2021/01/13 13:11:24;;;;;;;5.53;1.38;;;4.40;99.90;;;;;;5026580;28;20028;-47
2021/01/13 13:13:50;;;;;;;6.10;1.38;;;4.40;99.90;;;;;;5024874;28;20381;-44
2021/01/13 13:16:15;;;;;;;3.88;1.50;;;4.40;99.90;;;;;;5026065;28;20032;-43
2021/01/13 13:18:41;;;;;;;3.58;1.60;;;4.30;99.90;;;;;;5033396;28;20056;-42
2021/01/13 13:21:11;;;;;;;8.63;1.80;;;4.40;99.90;;;;;;5030089;28;20025;-45
2021/01/13 13:23:36;;;;;;;6.22;2.50;;;4.40;99.90;;;;;;5026528;28;20116;-45
2021/01/13 13:26:03;;;;;;;7.30;2.30;;;4.40;99.90;;;;;;5027329;28;20114;-44
2021/01/13 13:28:29;;;;;;;4.03;1.40;;;4.30;99.90;;;;;;5030073;28;20061;-43
2021/01/13 13:30:55;;;;;;;3.80;1.60;;;4.30;99.90;;;;;;5028343;28;20513;-43